Green Spring, West Virginia
Current Conditions -  °F | °C
As of 3:01 AM on Sunday 26 Oct 2014 (Local Time) from KCBE Reporting Station
Clear Clear  
Wind Chill: 61°   Ceiling: Unl
Heat Index: 61°   Visibility: 10mi
Dew Point: 32°   Wind: 9mph
Humidity: 34%   Direction: 340°NNW
Pressure: 29.8"   Gusts: 26mph
Location:  39.53°N, 78.62°W
Report Text: KCBE 260701Z AUTO 34008G23KT 321V021 10SM CLR 16/00 A2980 RMK AO1
Loading
Personal Weather Stations






























Interactive Weather Map
Tropical Storm Tracking
New forecast layout! Learn more

10-Day Weather Forecast

Advertisements
Track Severe Weather on mobile